sensor_id;sensor_type;location;lat;lon;timestamp;P1;durP1;ratioP1;P2;durP2;ratioP2
52268;SDS011;38224;50.950;4.100;2022-12-07T00:00:26;27.67;;;16.10;;
52268;SDS011;38224;50.950;4.100;2022-12-07T00:02:51;29.73;;;14.93;;
52268;SDS011;38224;50.950;4.100;2022-12-07T00:05:16;28.50;;;15.57;;
52268;SDS011;38224;50.950;4.100;2022-12-07T00:07:41;33.53;;;16.70;;
52268;SDS011;38224;50.950;4.100;2022-12-07T00:10:07;28.63;;;15.57;;
52268;SDS011;38224;50.950;4.100;2022-12-07T00:12:32;26.48;;;16.27;;
52268;SDS011;38224;50.950;4.100;2022-12-07T00:14:57;27.27;;;14.90;;
52268;SDS011;38224;50.950;4.100;2022-12-07T00:17:22;28.20;;;14.63;;
52268;SDS011;38224;50.950;4.100;2022-12-07T00:19:48;25.13;;;14.77;;
52268;SDS011;38224;50.950;4.100;2022-12-07T00:22:13;25.50;;;13.87;;
52268;SDS011;38224;50.950;4.100;2022-12-07T00:24:38;27.63;;;14.27;;
52268;SDS011;38224;50.950;4.100;2022-12-07T00:27:03;30.43;;;15.23;;
52268;SDS011;38224;50.950;4.100;2022-12-07T00:29:28;28.00;;;13.57;;
52268;SDS011;38224;50.950;4.100;2022-12-07T00:31:54;24.87;;;13.50;;
52268;SDS011;38224;50.950;4.100;2022-12-07T00:34:19;21.20;;;12.73;;
52268;SDS011;38224;50.950;4.100;2022-12-07T00:36:46;19.52;;;13.80;;
52268;SDS011;38224;50.950;4.100;2022-12-07T00:39:11;22.17;;;13.45;;
52268;SDS011;38224;50.950;4.100;2022-12-07T00:41:36;21.98;;;13.50;;
52268;SDS011;38224;50.950;4.100;2022-12-07T00:44:02;18.45;;;12.80;;
52268;SDS011;38224;50.950;4.100;2022-12-07T00:46:27;24.20;;;13.33;;
52268;SDS011;38224;50.950;4.100;2022-12-07T00:48:53;23.67;;;13.95;;
52268;SDS011;38224;50.950;4.100;2022-12-07T00:51:19;22.20;;;12.90;;
52268;SDS011;38224;50.950;4.100;2022-12-07T00:53:45;21.10;;;13.10;;
52268;SDS011;38224;50.950;4.100;2022-12-07T00:56:14;23.42;;;12.27;;
52268;SDS011;38224;50.950;4.100;2022-12-07T00:58:39;21.73;;;12.82;;
52268;SDS011;38224;50.950;4.100;2022-12-07T01:01:05;29.52;;;13.27;;
52268;SDS011;38224;50.950;4.100;2022-12-07T01:03:31;21.85;;;12.25;;
52268;SDS011;38224;50.950;4.100;2022-12-07T01:05:56;18.95;;;12.27;;
52268;SDS011;38224;50.950;4.100;2022-12-07T01:08:22;18.58;;;11.38;;
52268;SDS011;38224;50.950;4.100;2022-12-07T01:10:48;19.38;;;11.43;;
52268;SDS011;38224;50.950;4.100;2022-12-07T01:13:13;20.25;;;12.23;;
52268;SDS011;38224;50.950;4.100;2022-12-07T01:15:42;19.38;;;12.23;;
52268;SDS011;38224;50.950;4.100;2022-12-07T01:18:08;18.33;;;10.80;;
52268;SDS011;38224;50.950;4.100;2022-12-07T01:20:33;19.00;;;10.50;;
52268;SDS011;38224;50.950;4.100;2022-12-07T01:22:59;20.77;;;10.63;;
52268;SDS011;38224;50.950;4.100;2022-12-07T01:25:24;21.52;;;11.07;;
52268;SDS011;38224;50.950;4.100;2022-12-07T01:27:49;16.60;;;10.70;;
52268;SDS011;38224;50.950;4.100;2022-12-07T01:30:15;19.03;;;12.20;;
52268;SDS011;38224;50.950;4.100;2022-12-07T01:32:40;21.13;;;11.90;;
52268;SDS011;38224;50.950;4.100;2022-12-07T01:35:05;24.27;;;11.38;;
52268;SDS011;38224;50.950;4.100;2022-12-07T01:37:34;18.67;;;10.23;;
52268;SDS011;38224;50.950;4.100;2022-12-07T01:40:00;22.95;;;10.75;;
52268;SDS011;38224;50.950;4.100;2022-12-07T01:42:26;17.55;;;9.68;;
52268;SDS011;38224;50.950;4.100;2022-12-07T01:47:35;19.60;;;9.77;;
52268;SDS011;38224;50.950;4.100;2022-12-07T01:50:00;20.77;;;9.33;;
52268;SDS011;38224;50.950;4.100;2022-12-07T01:52:26;17.60;;;9.48;;
52268;SDS011;38224;50.950;4.100;2022-12-07T01:54:53;16.13;;;9.07;;
52268;SDS011;38224;50.950;4.100;2022-12-07T01:57:20;17.40;;;9.02;;
52268;SDS011;38224;50.950;4.100;2022-12-07T01:59:46;17.92;;;8.93;;
52268;SDS011;38224;50.950;4.100;2022-12-07T02:02:20;15.98;;;9.50;;
52268;SDS011;38224;50.950;4.100;2022-12-07T02:04:45;19.77;;;8.65;;
52268;SDS011;38224;50.950;4.100;2022-12-07T02:07:11;17.30;;;8.35;;
52268;SDS011;38224;50.950;4.100;2022-12-07T02:09:36;13.15;;;7.88;;
52268;SDS011;38224;50.950;4.100;2022-12-07T02:12:02;15.97;;;8.20;;
52268;SDS011;38224;50.950;4.100;2022-12-07T02:14:27;17.88;;;8.32;;
52268;SDS011;38224;50.950;4.100;2022-12-07T02:22:41;18.83;;;8.30;;
52268;SDS011;38224;50.950;4.100;2022-12-07T02:25:21;14.85;;;7.60;;
52268;SDS011;38224;50.950;4.100;2022-12-07T02:30:27;16.60;;;7.93;;
52268;SDS011;38224;50.950;4.100;2022-12-07T02:33:07;15.82;;;7.65;;
52268;SDS011;38224;50.950;4.100;2022-12-07T02:35:39;16.20;;;7.78;;
52268;SDS011;38224;50.950;4.100;2022-12-07T02:38:19;12.75;;;7.65;;
52268;SDS011;38224;50.950;4.100;2022-12-07T02:43:17;18.25;;;8.13;;
52268;SDS011;38224;50.950;4.100;2022-12-07T02:45:44;18.90;;;8.23;;
52268;SDS011;38224;50.950;4.100;2022-12-07T02:48:11;18.98;;;8.40;;
52268;SDS011;38224;50.950;4.100;2022-12-07T02:50:37;16.80;;;8.05;;
52268;SDS011;38224;50.950;4.100;2022-12-07T02:53:02;14.18;;;8.05;;
52268;SDS011;38224;50.950;4.100;2022-12-07T02:55:29;16.75;;;8.32;;
52268;SDS011;38224;50.950;4.100;2022-12-07T03:00:52;17.02;;;8.65;;
52268;SDS011;38224;50.950;4.100;2022-12-07T03:03:19;21.50;;;8.82;;
52268;SDS011;38224;50.950;4.100;2022-12-07T03:13:22;18.20;;;7.18;;
52268;SDS011;38224;50.950;4.100;2022-12-07T03:18:14;13.90;;;8.40;;
52268;SDS011;38224;50.950;4.100;2022-12-07T03:20:41;18.05;;;8.75;;
52268;SDS011;38224;50.950;4.100;2022-12-07T03:23:07;17.70;;;8.60;;
52268;SDS011;38224;50.950;4.100;2022-12-07T03:25:35;11.48;;;7.78;;
52268;SDS011;38224;50.950;4.100;2022-12-07T03:28:02;23.92;;;8.60;;
52268;SDS011;38224;50.950;4.100;2022-12-07T03:30:33;12.00;;;8.82;;
52268;SDS011;38224;50.950;4.100;2022-12-07T03:35:34;19.70;;;9.20;;
52268;SDS011;38224;50.950;4.100;2022-12-07T03:40:32;14.70;;;8.88;;
52268;SDS011;38224;50.950;4.100;2022-12-07T03:42:58;14.38;;;7.85;;
52268;SDS011;38224;50.950;4.100;2022-12-07T03:45:29;13.80;;;8.15;;
52268;SDS011;38224;50.950;4.100;2022-12-07T03:50:52;18.83;;;9.07;;
52268;SDS011;38224;50.950;4.100;2022-12-07T03:53:28;16.52;;;9.00;;
52268;SDS011;38224;50.950;4.100;2022-12-07T03:55:55;17.85;;;8.77;;
52268;SDS011;38224;50.950;4.100;2022-12-07T03:58:21;18.23;;;10.07;;
52268;SDS011;38224;50.950;4.100;2022-12-07T04:00:48;24.70;;;11.02;;
52268;SDS011;38224;50.950;4.100;2022-12-07T04:03:14;22.65;;;11.88;;
52268;SDS011;38224;50.950;4.100;2022-12-07T04:05:39;20.83;;;11.55;;
52268;SDS011;38224;50.950;4.100;2022-12-07T04:08:04;21.73;;;12.30;;
52268;SDS011;38224;50.950;4.100;2022-12-07T04:10:30;19.63;;;13.50;;
52268;SDS011;38224;50.950;4.100;2022-12-07T04:12:55;24.50;;;12.85;;
52268;SDS011;38224;50.950;4.100;2022-12-07T04:15:20;23.95;;;12.15;;
52268;SDS011;38224;50.950;4.100;2022-12-07T04:17:45;19.45;;;12.65;;
52268;SDS011;38224;50.950;4.100;2022-12-07T04:20:11;21.87;;;11.30;;
52268;SDS011;38224;50.950;4.100;2022-12-07T04:22:36;25.23;;;12.25;;
52268;SDS011;38224;50.950;4.100;2022-12-07T04:25:01;23.27;;;12.93;;
52268;SDS011;38224;50.950;4.100;2022-12-07T04:27:27;21.30;;;12.38;;
52268;SDS011;38224;50.950;4.100;2022-12-07T04:29:52;20.33;;;12.10;;
52268;SDS011;38224;50.950;4.100;2022-12-07T04:32:18;23.85;;;12.40;;
52268;SDS011;38224;50.950;4.100;2022-12-07T04:34:43;28.47;;;12.97;;
52268;SDS011;38224;50.950;4.100;2022-12-07T04:37:08;25.77;;;12.13;;
52268;SDS011;38224;50.950;4.100;2022-12-07T04:39:34;22.50;;;13.00;;
52268;SDS011;38224;50.950;4.100;2022-12-07T04:41:59;27.17;;;12.30;;
52268;SDS011;38224;50.950;4.100;2022-12-07T04:44:25;25.33;;;13.32;;
52268;SDS011;38224;50.950;4.100;2022-12-07T04:46:51;25.33;;;13.25;;
52268;SDS011;38224;50.950;4.100;2022-12-07T04:49:17;27.60;;;14.90;;
52268;SDS011;38224;50.950;4.100;2022-12-07T04:51:42;24.70;;;14.32;;
52268;SDS011;38224;50.950;4.100;2022-12-07T04:54:07;23.00;;;13.18;;
52268;SDS011;38224;50.950;4.100;2022-12-07T04:56:33;21.23;;;12.48;;
52268;SDS011;38224;50.950;4.100;2022-12-07T04:59:00;23.48;;;12.23;;
52268;SDS011;38224;50.950;4.100;2022-12-07T05:01:25;21.92;;;13.15;;
52268;SDS011;38224;50.950;4.100;2022-12-07T05:03:51;22.43;;;14.30;;
52268;SDS011;38224;50.950;4.100;2022-12-07T05:06:16;29.08;;;17.25;;
52268;SDS011;38224;50.950;4.100;2022-12-07T05:08:41;23.67;;;16.90;;
52268;SDS011;38224;50.950;4.100;2022-12-07T05:11:08;33.67;;;17.50;;
52268;SDS011;38224;50.950;4.100;2022-12-07T05:13:35;29.50;;;17.38;;
52268;SDS011;38224;50.950;4.100;2022-12-07T05:16:01;23.40;;;17.60;;
52268;SDS011;38224;50.950;4.100;2022-12-07T05:18:26;18.60;;;15.15;;
52268;SDS011;38224;50.950;4.100;2022-12-07T05:20:51;20.23;;;14.20;;
52268;SDS011;38224;50.950;4.100;2022-12-07T05:23:17;20.30;;;13.60;;
52268;SDS011;38224;50.950;4.100;2022-12-07T05:25:42;35.65;;;18.48;;
52268;SDS011;38224;50.950;4.100;2022-12-07T05:28:08;26.15;;;15.88;;
52268;SDS011;38224;50.950;4.100;2022-12-07T05:30:33;30.13;;;16.17;;
52268;SDS011;38224;50.950;4.100;2022-12-07T05:32:59;23.65;;;15.10;;
52268;SDS011;38224;50.950;4.100;2022-12-07T05:35:24;22.55;;;13.70;;
52268;SDS011;38224;50.950;4.100;2022-12-07T05:37:49;21.27;;;13.13;;
52268;SDS011;38224;50.950;4.100;2022-12-07T05:40:15;29.10;;;16.05;;
52268;SDS011;38224;50.950;4.100;2022-12-07T05:42:40;28.15;;;13.95;;
52268;SDS011;38224;50.950;4.100;2022-12-07T05:45:06;23.58;;;12.45;;
52268;SDS011;38224;50.950;4.100;2022-12-07T05:47:32;20.25;;;11.32;;
52268;SDS011;38224;50.950;4.100;2022-12-07T05:49:57;22.03;;;11.80;;
52268;SDS011;38224;50.950;4.100;2022-12-07T05:52:22;18.13;;;11.00;;
52268;SDS011;38224;50.950;4.100;2022-12-07T05:54:48;22.92;;;10.55;;
52268;SDS011;38224;50.950;4.100;2022-12-07T05:57:13;21.67;;;10.82;;
52268;SDS011;38224;50.950;4.100;2022-12-07T05:59:38;28.00;;;13.97;;
52268;SDS011;38224;50.950;4.100;2022-12-07T06:02:05;22.20;;;12.67;;
52268;SDS011;38224;50.950;4.100;2022-12-07T06:04:32;27.63;;;11.98;;
52268;SDS011;38224;50.950;4.100;2022-12-07T06:06:57;20.65;;;11.73;;
52268;SDS011;38224;50.950;4.100;2022-12-07T06:09:23;23.65;;;12.15;;
52268;SDS011;38224;50.950;4.100;2022-12-07T06:11:49;21.35;;;11.35;;
52268;SDS011;38224;50.950;4.100;2022-12-07T06:14:33;18.45;;;11.52;;
52268;SDS011;38224;50.950;4.100;2022-12-07T06:16:58;24.40;;;11.40;;
52268;SDS011;38224;50.950;4.100;2022-12-07T06:19:24;19.30;;;10.82;;
52268;SDS011;38224;50.950;4.100;2022-12-07T06:21:49;20.92;;;10.05;;
52268;SDS011;38224;50.950;4.100;2022-12-07T06:24:15;15.43;;;9.90;;
52268;SDS011;38224;50.950;4.100;2022-12-07T06:26:41;17.95;;;9.55;;
52268;SDS011;38224;50.950;4.100;2022-12-07T06:29:07;14.85;;;9.40;;
52268;SDS011;38224;50.950;4.100;2022-12-07T06:31:32;19.52;;;10.25;;
52268;SDS011;38224;50.950;4.100;2022-12-07T06:33:58;21.47;;;11.50;;
52268;SDS011;38224;50.950;4.100;2022-12-07T06:36:24;19.30;;;11.32;;
52268;SDS011;38224;50.950;4.100;2022-12-07T06:38:49;19.48;;;9.82;;
52268;SDS011;38224;50.950;4.100;2022-12-07T06:41:14;17.55;;;10.50;;
52268;SDS011;38224;50.950;4.100;2022-12-07T06:43:39;26.10;;;13.13;;
52268;SDS011;38224;50.950;4.100;2022-12-07T06:46:05;22.00;;;14.82;;
52268;SDS011;38224;50.950;4.100;2022-12-07T06:48:30;23.08;;;14.10;;
52268;SDS011;38224;50.950;4.100;2022-12-07T06:50:55;21.87;;;13.93;;
52268;SDS011;38224;50.950;4.100;2022-12-07T06:53:21;26.98;;;15.95;;
52268;SDS011;38224;50.950;4.100;2022-12-07T06:55:46;23.25;;;15.15;;
52268;SDS011;38224;50.950;4.100;2022-12-07T06:58:12;32.73;;;24.10;;
52268;SDS011;38224;50.950;4.100;2022-12-07T07:00:37;26.33;;;18.43;;
52268;SDS011;38224;50.950;4.100;2022-12-07T07:03:02;22.45;;;15.05;;
52268;SDS011;38224;50.950;4.100;2022-12-07T07:05:27;24.75;;;17.65;;
52268;SDS011;38224;50.950;4.100;2022-12-07T07:07:53;22.00;;;15.35;;
52268;SDS011;38224;50.950;4.100;2022-12-07T07:10:18;27.83;;;17.03;;
52268;SDS011;38224;50.950;4.100;2022-12-07T07:12:43;32.03;;;18.43;;
52268;SDS011;38224;50.950;4.100;2022-12-07T07:15:09;27.80;;;15.30;;
52268;SDS011;38224;50.950;4.100;2022-12-07T07:17:34;29.48;;;13.98;;
52268;SDS011;38224;50.950;4.100;2022-12-07T07:20:00;25.92;;;14.25;;
52268;SDS011;38224;50.950;4.100;2022-12-07T07:22:25;21.57;;;11.57;;
52268;SDS011;38224;50.950;4.100;2022-12-07T07:24:50;24.40;;;10.50;;
52268;SDS011;38224;50.950;4.100;2022-12-07T07:27:15;23.50;;;10.50;;
52268;SDS011;38224;50.950;4.100;2022-12-07T07:29:41;17.70;;;9.05;;
52268;SDS011;38224;50.950;4.100;2022-12-07T07:32:06;17.63;;;9.90;;
52268;SDS011;38224;50.950;4.100;2022-12-07T07:34:32;20.70;;;11.55;;
52268;SDS011;38224;50.950;4.100;2022-12-07T07:36:57;20.08;;;10.15;;
52268;SDS011;38224;50.950;4.100;2022-12-07T07:39:23;21.73;;;11.73;;
52268;SDS011;38224;50.950;4.100;2022-12-07T07:41:48;25.07;;;13.57;;
52268;SDS011;38224;50.950;4.100;2022-12-07T07:44:13;23.77;;;11.77;;
52268;SDS011;38224;50.950;4.100;2022-12-07T07:46:39;21.10;;;11.40;;
52268;SDS011;38224;50.950;4.100;2022-12-07T07:49:04;26.08;;;12.68;;
52268;SDS011;38224;50.950;4.100;2022-12-07T07:51:29;28.87;;;12.93;;
52268;SDS011;38224;50.950;4.100;2022-12-07T07:53:54;21.30;;;13.17;;
52268;SDS011;38224;50.950;4.100;2022-12-07T07:56:20;23.67;;;11.77;;
52268;SDS011;38224;50.950;4.100;2022-12-07T07:58:45;24.20;;;12.73;;
52268;SDS011;38224;50.950;4.100;2022-12-07T08:01:10;20.37;;;11.23;;
52268;SDS011;38224;50.950;4.100;2022-12-07T08:03:36;17.13;;;10.18;;
52268;SDS011;38224;50.950;4.100;2022-12-07T08:06:02;19.83;;;11.73;;
52268;SDS011;38224;50.950;4.100;2022-12-07T08:08:27;21.20;;;12.48;;
52268;SDS011;38224;50.950;4.100;2022-12-07T08:10:52;24.83;;;12.13;;
52268;SDS011;38224;50.950;4.100;2022-12-07T08:13:18;22.53;;;11.83;;
52268;SDS011;38224;50.950;4.100;2022-12-07T08:15:44;22.40;;;11.67;;
52268;SDS011;38224;50.950;4.100;2022-12-07T08:18:10;24.67;;;10.60;;
52268;SDS011;38224;50.950;4.100;2022-12-07T08:20:35;21.33;;;13.25;;
52268;SDS011;38224;50.950;4.100;2022-12-07T08:23:01;26.88;;;13.05;;
52268;SDS011;38224;50.950;4.100;2022-12-07T08:25:26;20.70;;;8.30;;
52268;SDS011;38224;50.950;4.100;2022-12-07T08:27:52;17.98;;;9.93;;
52268;SDS011;38224;50.950;4.100;2022-12-07T08:30:17;24.07;;;10.83;;
52268;SDS011;38224;50.950;4.100;2022-12-07T08:32:46;25.45;;;11.00;;
52268;SDS011;38224;50.950;4.100;2022-12-07T08:35:12;22.60;;;11.10;;
52268;SDS011;38224;50.950;4.100;2022-12-07T08:37:38;28.88;;;11.45;;
52268;SDS011;38224;50.950;4.100;2022-12-07T08:40:03;20.83;;;10.15;;
52268;SDS011;38224;50.950;4.100;2022-12-07T08:42:29;20.27;;;10.30;;
52268;SDS011;38224;50.950;4.100;2022-12-07T08:45:02;20.58;;;10.60;;
52268;SDS011;38224;50.950;4.100;2022-12-07T08:47:27;23.10;;;11.50;;
52268;SDS011;38224;50.950;4.100;2022-12-07T08:49:53;21.90;;;10.23;;
52268;SDS011;38224;50.950;4.100;2022-12-07T08:52:18;21.42;;;10.43;;
52268;SDS011;38224;50.950;4.100;2022-12-07T08:54:44;20.30;;;9.60;;
52268;SDS011;38224;50.950;4.100;2022-12-07T08:57:10;20.27;;;9.18;;
52268;SDS011;38224;50.950;4.100;2022-12-07T08:59:36;18.25;;;10.32;;
52268;SDS011;38224;50.950;4.100;2022-12-07T09:02:01;22.80;;;10.65;;
52268;SDS011;38224;50.950;4.100;2022-12-07T09:04:27;21.85;;;9.63;;
52268;SDS011;38224;50.950;4.100;2022-12-07T09:06:53;26.40;;;9.60;;
52268;SDS011;38224;50.950;4.100;2022-12-07T09:09:18;16.80;;;10.18;;
52268;SDS011;38224;50.950;4.100;2022-12-07T09:11:44;19.52;;;9.18;;
52268;SDS011;38224;50.950;4.100;2022-12-07T09:14:10;20.92;;;9.13;;
52268;SDS011;38224;50.950;4.100;2022-12-07T09:16:35;23.67;;;8.43;;
52268;SDS011;38224;50.950;4.100;2022-12-07T09:19:00;22.65;;;7.78;;
52268;SDS011;38224;50.950;4.100;2022-12-07T09:21:25;16.50;;;7.77;;
52268;SDS011;38224;50.950;4.100;2022-12-07T09:23:51;17.70;;;7.72;;
52268;SDS011;38224;50.950;4.100;2022-12-07T09:26:16;15.20;;;7.47;;
52268;SDS011;38224;50.950;4.100;2022-12-07T09:28:41;19.80;;;7.68;;
52268;SDS011;38224;50.950;4.100;2022-12-07T09:31:07;20.20;;;8.07;;
52268;SDS011;38224;50.950;4.100;2022-12-07T09:33:32;18.27;;;7.32;;
52268;SDS011;38224;50.950;4.100;2022-12-07T09:35:57;11.73;;;6.03;;
52268;SDS011;38224;50.950;4.100;2022-12-07T09:38:23;16.80;;;7.32;;
52268;SDS011;38224;50.950;4.100;2022-12-07T09:40:51;18.20;;;7.82;;
52268;SDS011;38224;50.950;4.100;2022-12-07T09:43:18;18.98;;;9.88;;
52268;SDS011;38224;50.950;4.100;2022-12-07T09:45:44;15.23;;;7.13;;
52268;SDS011;38224;50.950;4.100;2022-12-07T09:48:18;17.48;;;7.05;;
52268;SDS011;38224;50.950;4.100;2022-12-07T09:50:44;20.48;;;7.60;;
52268;SDS011;38224;50.950;4.100;2022-12-07T09:53:14;18.23;;;7.32;;
52268;SDS011;38224;50.950;4.100;2022-12-07T09:55:40;15.13;;;6.50;;
52268;SDS011;38224;50.950;4.100;2022-12-07T09:58:06;20.70;;;7.60;;
52268;SDS011;38224;50.950;4.100;2022-12-07T10:00:31;15.57;;;7.13;;
52268;SDS011;38224;50.950;4.100;2022-12-07T10:03:00;17.08;;;6.03;;
52268;SDS011;38224;50.950;4.100;2022-12-07T10:05:34;13.77;;;6.72;;
52268;SDS011;38224;50.950;4.100;2022-12-07T10:08:00;14.93;;;5.55;;
52268;SDS011;38224;50.950;4.100;2022-12-07T10:10:30;19.85;;;7.28;;
52268;SDS011;38224;50.950;4.100;2022-12-07T10:12:57;14.70;;;6.28;;
52268;SDS011;38224;50.950;4.100;2022-12-07T10:15:23;15.23;;;6.22;;
52268;SDS011;38224;50.950;4.100;2022-12-07T10:17:48;17.17;;;7.65;;
52268;SDS011;38224;50.950;4.100;2022-12-07T10:20:15;28.35;;;10.35;;
52268;SDS011;38224;50.950;4.100;2022-12-07T10:22:57;20.67;;;6.35;;
52268;SDS011;38224;50.950;4.100;2022-12-07T10:25:24;19.77;;;6.43;;
52268;SDS011;38224;50.950;4.100;2022-12-07T10:28:10;16.17;;;7.10;;
52268;SDS011;38224;50.950;4.100;2022-12-07T10:30:47;15.75;;;6.03;;
52268;SDS011;38224;50.950;4.100;2022-12-07T10:35:56;13.25;;;4.90;;
52268;SDS011;38224;50.950;4.100;2022-12-07T10:38:22;13.60;;;5.35;;
52268;SDS011;38224;50.950;4.100;2022-12-07T10:40:49;12.68;;;4.82;;
52268;SDS011;38224;50.950;4.100;2022-12-07T10:43:27;15.32;;;6.32;;
52268;SDS011;38224;50.950;4.100;2022-12-07T10:51:16;15.43;;;5.28;;
52268;SDS011;38224;50.950;4.100;2022-12-07T10:59:27;30.83;;;7.03;;
52268;SDS011;38224;50.950;4.100;2022-12-07T11:07:14;8.52;;;3.55;;
52268;SDS011;38224;50.950;4.100;2022-12-07T11:15:10;13.20;;;3.42;;
52268;SDS011;38224;50.950;4.100;2022-12-07T11:17:45;6.15;;;2.80;;
52268;SDS011;38224;50.950;4.100;2022-12-07T11:20:34;5.03;;;2.33;;
52268;SDS011;38224;50.950;4.100;2022-12-07T11:25:38;8.95;;;2.55;;
52268;SDS011;38224;50.950;4.100;2022-12-07T11:33:09;4.57;;;2.20;;
52268;SDS011;38224;50.950;4.100;2022-12-07T11:38:17;6.00;;;2.10;;
52268;SDS011;38224;50.950;4.100;2022-12-07T11:40:45;9.50;;;2.15;;
52268;SDS011;38224;50.950;4.100;2022-12-07T11:43:22;8.43;;;2.70;;
52268;SDS011;38224;50.950;4.100;2022-12-07T11:46:12;7.07;;;1.92;;
52268;SDS011;38224;50.950;4.100;2022-12-07T11:48:45;8.40;;;2.45;;
52268;SDS011;38224;50.950;4.100;2022-12-07T11:51:12;8.48;;;2.40;;
52268;SDS011;38224;50.950;4.100;2022-12-07T11:53:39;9.50;;;2.35;;
52268;SDS011;38224;50.950;4.100;2022-12-07T12:03:40;6.97;;;2.20;;
52268;SDS011;38224;50.950;4.100;2022-12-07T12:06:06;6.70;;;2.45;;
52268;SDS011;38224;50.950;4.100;2022-12-07T12:08:54;7.40;;;2.65;;
52268;SDS011;38224;50.950;4.100;2022-12-07T12:21:29;8.30;;;3.50;;
52268;SDS011;38224;50.950;4.100;2022-12-07T12:23:56;9.80;;;3.42;;
52268;SDS011;38224;50.950;4.100;2022-12-07T12:26:24;8.95;;;3.50;;
52268;SDS011;38224;50.950;4.100;2022-12-07T12:33:48;9.00;;;3.95;;
52268;SDS011;38224;50.950;4.100;2022-12-07T12:44:01;8.25;;;2.80;;
52268;SDS011;38224;50.950;4.100;2022-12-07T12:51:40;8.27;;;3.15;;
52268;SDS011;38224;50.950;4.100;2022-12-07T12:54:08;5.47;;;2.70;;
52268;SDS011;38224;50.950;4.100;2022-12-07T12:59:23;9.60;;;2.92;;
52268;SDS011;38224;50.950;4.100;2022-12-07T13:01:50;8.05;;;2.30;;
52268;SDS011;38224;50.950;4.100;2022-12-07T13:06:45;3.95;;;1.50;;
52268;SDS011;38224;50.950;4.100;2022-12-07T13:09:24;7.57;;;2.33;;
52268;SDS011;38224;50.950;4.100;2022-12-07T13:11:55;6.13;;;2.10;;
52268;SDS011;38224;50.950;4.100;2022-12-07T13:17:02;2.30;;;1.58;;
52268;SDS011;38224;50.950;4.100;2022-12-07T13:24:59;7.57;;;2.38;;
52268;SDS011;38224;50.950;4.100;2022-12-07T13:27:28;5.78;;;1.90;;
52268;SDS011;38224;50.950;4.100;2022-12-07T13:29:55;7.38;;;2.50;;
52268;SDS011;38224;50.950;4.100;2022-12-07T13:32:24;8.95;;;2.13;;
52268;SDS011;38224;50.950;4.100;2022-12-07T13:34:50;9.23;;;2.78;;
52268;SDS011;38224;50.950;4.100;2022-12-07T13:37:28;6.30;;;2.97;;
52268;SDS011;38224;50.950;4.100;2022-12-07T13:39:56;8.15;;;2.75;;
52268;SDS011;38224;50.950;4.100;2022-12-07T13:42:24;13.85;;;3.10;;
52268;SDS011;38224;50.950;4.100;2022-12-07T13:44:51;9.88;;;3.17;;
52268;SDS011;38224;50.950;4.100;2022-12-07T13:47:31;9.77;;;3.08;;
52268;SDS011;38224;50.950;4.100;2022-12-07T13:57:31;4.07;;;1.45;;
52268;SDS011;38224;50.950;4.100;2022-12-07T13:59:58;4.10;;;1.38;;
52268;SDS011;38224;50.950;4.100;2022-12-07T14:04:50;3.60;;;1.65;;
52268;SDS011;38224;50.950;4.100;2022-12-07T14:07:26;7.30;;;1.38;;
52268;SDS011;38224;50.950;4.100;2022-12-07T14:09:56;7.53;;;1.60;;
52268;SDS011;38224;50.950;4.100;2022-12-07T14:12:22;4.28;;;1.58;;
52268;SDS011;38224;50.950;4.100;2022-12-07T14:14:47;9.75;;;2.45;;
52268;SDS011;38224;50.950;4.100;2022-12-07T14:17:21;8.90;;;2.60;;
52268;SDS011;38224;50.950;4.100;2022-12-07T14:25:00;5.47;;;1.95;;
52268;SDS011;38224;50.950;4.100;2022-12-07T14:27:30;8.25;;;3.10;;
52268;SDS011;38224;50.950;4.100;2022-12-07T14:29:58;8.43;;;2.87;;
52268;SDS011;38224;50.950;4.100;2022-12-07T14:32:24;7.77;;;2.60;;
52268;SDS011;38224;50.950;4.100;2022-12-07T14:34:54;9.75;;;2.88;;
52268;SDS011;38224;50.950;4.100;2022-12-07T14:37:19;6.50;;;2.38;;
52268;SDS011;38224;50.950;4.100;2022-12-07T14:39:45;8.02;;;3.38;;
52268;SDS011;38224;50.950;4.100;2022-12-07T14:42:10;18.50;;;5.70;;
52268;SDS011;38224;50.950;4.100;2022-12-07T14:44:35;16.40;;;6.25;;
52268;SDS011;38224;50.950;4.100;2022-12-07T14:47:00;15.73;;;6.30;;
52268;SDS011;38224;50.950;4.100;2022-12-07T14:49:26;25.07;;;7.17;;
52268;SDS011;38224;50.950;4.100;2022-12-07T14:51:51;20.73;;;5.30;;
52268;SDS011;38224;50.950;4.100;2022-12-07T14:54:19;9.82;;;4.32;;
52268;SDS011;38224;50.950;4.100;2022-12-07T14:56:45;17.33;;;5.05;;
52268;SDS011;38224;50.950;4.100;2022-12-07T14:59:14;11.05;;;4.45;;
52268;SDS011;38224;50.950;4.100;2022-12-07T15:01:39;7.68;;;3.33;;
52268;SDS011;38224;50.950;4.100;2022-12-07T15:04:04;8.57;;;3.10;;
52268;SDS011;38224;50.950;4.100;2022-12-07T15:06:29;9.38;;;3.83;;
52268;SDS011;38224;50.950;4.100;2022-12-07T15:08:55;10.70;;;3.95;;
52268;SDS011;38224;50.950;4.100;2022-12-07T15:11:20;9.55;;;4.68;;
52268;SDS011;38224;50.950;4.100;2022-12-07T15:13:45;6.80;;;4.13;;
52268;SDS011;38224;50.950;4.100;2022-12-07T15:16:29;9.18;;;4.75;;
52268;SDS011;38224;50.950;4.100;2022-12-07T15:18:54;10.83;;;4.80;;
52268;SDS011;38224;50.950;4.100;2022-12-07T15:21:20;8.77;;;4.10;;
52268;SDS011;38224;50.950;4.100;2022-12-07T15:23:46;12.03;;;4.40;;
52268;SDS011;38224;50.950;4.100;2022-12-07T15:26:11;8.63;;;4.07;;
52268;SDS011;38224;50.950;4.100;2022-12-07T15:28:36;7.97;;;4.28;;
52268;SDS011;38224;50.950;4.100;2022-12-07T15:31:02;8.10;;;4.53;;
52268;SDS011;38224;50.950;4.100;2022-12-07T15:33:27;8.45;;;4.28;;
52268;SDS011;38224;50.950;4.100;2022-12-07T15:35:52;10.07;;;4.33;;
52268;SDS011;38224;50.950;4.100;2022-12-07T15:38:17;11.52;;;4.32;;
52268;SDS011;38224;50.950;4.100;2022-12-07T15:40:46;12.53;;;5.03;;
52268;SDS011;38224;50.950;4.100;2022-12-07T15:43:11;12.48;;;6.03;;
52268;SDS011;38224;50.950;4.100;2022-12-07T15:45:56;11.98;;;5.70;;
52268;SDS011;38224;50.950;4.100;2022-12-07T15:48:21;12.13;;;6.03;;
52268;SDS011;38224;50.950;4.100;2022-12-07T15:50:46;14.07;;;7.53;;
52268;SDS011;38224;50.950;4.100;2022-12-07T15:53:12;18.97;;;7.00;;
52268;SDS011;38224;50.950;4.100;2022-12-07T15:55:40;17.20;;;7.33;;
52268;SDS011;38224;50.950;4.100;2022-12-07T15:58:06;18.85;;;7.57;;
52268;SDS011;38224;50.950;4.100;2022-12-07T16:00:31;18.67;;;10.98;;
52268;SDS011;38224;50.950;4.100;2022-12-07T16:02:56;16.10;;;8.03;;
52268;SDS011;38224;50.950;4.100;2022-12-07T16:05:21;17.63;;;7.87;;
52268;SDS011;38224;50.950;4.100;2022-12-07T16:07:47;17.17;;;8.02;;
52268;SDS011;38224;50.950;4.100;2022-12-07T16:10:12;13.32;;;8.00;;
52268;SDS011;38224;50.950;4.100;2022-12-07T16:12:37;17.02;;;7.57;;
52268;SDS011;38224;50.950;4.100;2022-12-07T16:15:02;16.43;;;8.30;;
52268;SDS011;38224;50.950;4.100;2022-12-07T16:17:28;18.02;;;7.90;;
52268;SDS011;38224;50.950;4.100;2022-12-07T16:19:53;18.67;;;8.65;;
52268;SDS011;38224;50.950;4.100;2022-12-07T16:22:18;24.97;;;11.83;;
52268;SDS011;38224;50.950;4.100;2022-12-07T16:24:43;20.77;;;9.30;;
52268;SDS011;38224;50.950;4.100;2022-12-07T16:27:08;24.50;;;8.77;;
52268;SDS011;38224;50.950;4.100;2022-12-07T16:29:34;18.37;;;9.37;;
52268;SDS011;38224;50.950;4.100;2022-12-07T16:31:59;22.40;;;8.77;;
52268;SDS011;38224;50.950;4.100;2022-12-07T16:34:25;24.92;;;9.38;;
52268;SDS011;38224;50.950;4.100;2022-12-07T16:36:50;19.98;;;9.55;;
52268;SDS011;38224;50.950;4.100;2022-12-07T16:39:15;22.30;;;10.23;;
52268;SDS011;38224;50.950;4.100;2022-12-07T16:41:40;27.63;;;10.43;;